createdAt,value
2023-01-27T00:00:12.596Z,43.25
2023-01-27T00:01:12.238Z,41.18
2023-01-27T00:02:12.291Z,38.28
2023-01-27T00:03:12.212Z,44.18
2023-01-27T00:04:12.205Z,43.98
2023-01-27T00:05:12.203Z,44.49
2023-01-27T00:06:12.245Z,42.94
2023-01-27T00:07:12.173Z,45.73
2023-01-27T00:08:12.160Z,43.77
2023-01-27T00:09:12.173Z,41.08
2023-01-27T00:10:12.426Z,40.25
2023-01-27T00:11:12.128Z,38.49
2023-01-27T00:12:12.122Z,39.83
2023-01-27T00:13:12.109Z,37.15
2023-01-27T00:14:12.096Z,39.11
2023-01-27T00:15:12.091Z,40.25
2023-01-27T00:16:12.141Z,40.35
2023-01-27T00:17:12.061Z,41.49
2023-01-27T00:18:12.056Z,42.32
2023-01-27T00:19:12.049Z,42.83
2023-01-27T00:20:12.336Z,40.97
2023-01-27T00:21:12.069Z,40.56
2023-01-27T00:22:12.010Z,40.25
2023-01-27T00:23:11.998Z,38.18
2023-01-27T00:24:12.085Z,37.55
2023-01-27T00:25:12.006Z,38.70
2023-01-27T00:26:11.972Z,37.97
2023-01-27T00:27:11.953Z,37.46
2023-01-27T00:28:11.950Z,39.53
2023-01-27T00:29:11.945Z,37.76
2023-01-27T00:30:12.304Z,40.97
2023-01-27T00:31:12.032Z,43.98
2023-01-27T00:32:11.898Z,43.77
2023-01-27T00:33:12.098Z,42.63
2023-01-27T00:34:11.881Z,42.94
2023-01-27T00:35:11.863Z,43.46
2023-01-27T00:36:11.860Z,45.53
2023-01-27T00:37:11.851Z,44.38
2023-01-27T00:38:11.834Z,45.11
2023-01-27T00:39:11.829Z,49.04
2023-01-27T00:40:12.151Z,49.15
2023-01-27T00:41:11.822Z,46.15
2023-01-27T00:42:11.789Z,46.66
2023-01-27T00:43:11.780Z,45.21
2023-01-27T00:44:11.775Z,44.28
2023-01-27T00:45:11.760Z,45.11
2023-01-27T00:46:11.788Z,46.15
2023-01-27T00:47:11.745Z,44.70
2023-01-27T00:48:11.723Z,44.28
2023-01-27T00:49:11.712Z,45.73
2023-01-27T00:50:12.056Z,47.08
2023-01-27T00:51:11.691Z,47.18
2023-01-27T00:52:11.682Z,45.84
2023-01-27T00:53:11.667Z,44.38
2023-01-27T00:54:11.655Z,47.49
2023-01-27T00:55:11.657Z,47.39
2023-01-27T00:56:11.634Z,46.66
2023-01-27T00:57:11.645Z,47.18
2023-01-27T00:58:11.611Z,48.43
2023-01-27T00:59:11.602Z,50.39
2023-01-27T01:00:11.591Z,49.87
2023-01-27T01:01:11.584Z,48.32
2023-01-27T01:02:11.686Z,48.22
2023-01-27T01:03:11.634Z,51.21
2023-01-27T01:04:11.549Z,47.18
2023-01-27T01:05:11.533Z,47.18
2023-01-27T01:06:11.532Z,48.83
2023-01-27T01:07:11.512Z,48.73
2023-01-27T01:08:11.513Z,47.70
2023-01-27T01:09:11.497Z,46.56
2023-01-27T01:10:11.856Z,47.18
2023-01-27T01:11:11.485Z,48.83
2023-01-27T01:12:11.458Z,49.25
2023-01-27T01:13:11.470Z,49.87
2023-01-27T01:14:11.437Z,48.53
2023-01-27T01:15:11.422Z,50.18
2023-01-27T01:16:11.473Z,48.94
2023-01-27T01:17:11.401Z,48.83
2023-01-27T01:18:11.391Z,47.39
2023-01-27T01:19:11.378Z,48.83
2023-01-27T01:20:11.800Z,50.60
2023-01-27T01:21:11.362Z,51.01
2023-01-27T01:22:11.346Z,51.73
2023-01-27T01:23:11.339Z,54.63
2023-01-27T01:24:11.375Z,54.94
2023-01-27T01:25:11.313Z,53.80
2023-01-27T01:26:11.312Z,54.74
2023-01-27T01:27:11.290Z,54.01
2023-01-27T01:28:11.280Z,55.35
2023-01-27T01:29:11.301Z,54.01
2023-01-27T01:30:11.652Z,53.91
2023-01-27T01:31:11.312Z,53.49
2023-01-27T01:32:11.259Z,53.39
2023-01-27T01:33:11.225Z,52.56
2023-01-27T01:34:11.213Z,54.22
2023-01-27T01:35:11.218Z,55.66
2023-01-27T01:36:11.213Z,55.15
2023-01-27T01:37:11.195Z,52.98
2023-01-27T01:38:11.168Z,55.87
2023-01-27T01:39:11.158Z,55.46
2023-01-27T01:40:11.572Z,55.98
2023-01-27T01:41:11.137Z,56.08
2023-01-27T01:42:11.124Z,60.84
2023-01-27T01:43:11.116Z,58.98
2023-01-27T01:44:11.104Z,60.11
2023-01-27T01:45:11.115Z,58.84
2023-01-27T01:46:11.137Z,60.40
2023-01-27T01:47:11.070Z,60.30
2023-01-27T01:48:11.059Z,60.09
2023-01-27T01:49:11.049Z,59.99
2023-01-27T01:50:11.415Z,61.85
2023-01-27T01:51:11.036Z,59.99
2023-01-27T01:52:11.019Z,61.22
2023-01-27T01:53:11.025Z,62.57
2023-01-27T01:54:11.050Z,59.36
2023-01-27T01:55:11.361Z,61.95
2023-01-27T01:56:11.044Z,61.64
2023-01-27T01:57:11.057Z,61.43
2023-01-27T01:58:11.156Z,60.30
2023-01-27T01:59:11.077Z,65.05
2023-01-27T02:00:11.299Z,63.09
2023-01-27T02:01:10.971Z,66.50
2023-01-27T02:02:10.944Z,64.12
2023-01-27T02:03:10.895Z,62.88
2023-01-27T02:04:10.883Z,62.46
2023-01-27T02:05:11.322Z,61.12
2023-01-27T02:06:10.860Z,59.57
2023-01-27T02:07:10.850Z,61.33
2023-01-27T02:08:10.842Z,61.85
2023-01-27T02:09:10.827Z,59.47
2023-01-27T02:10:11.285Z,61.02
2023-01-27T02:11:10.808Z,61.74
2023-01-27T02:12:10.792Z,62.46
2023-01-27T02:13:10.782Z,62.05
2023-01-27T02:14:10.771Z,60.81
2023-01-27T02:15:11.083Z,61.43
2023-01-27T02:16:10.751Z,60.81
2023-01-27T02:17:10.764Z,58.95
2023-01-27T02:18:10.727Z,58.12
2023-01-27T02:19:10.717Z,59.36
2023-01-27T02:20:10.709Z,58.84
2023-01-27T02:21:10.701Z,59.88
2023-01-27T02:22:10.687Z,57.92
2023-01-27T02:23:10.674Z,57.60
2023-01-27T02:24:10.729Z,58.02
2023-01-27T02:25:11.252Z,57.71
2023-01-27T02:26:10.640Z,57.01
2023-01-27T02:27:10.629Z,58.04
2023-01-27T02:28:10.619Z,56.39
2023-01-27T02:29:10.607Z,55.25
2023-01-27T02:30:10.594Z,55.15
2023-01-27T02:31:10.656Z,56.70
2023-01-27T02:32:10.572Z,56.29
2023-01-27T02:33:10.588Z,55.35
2023-01-27T02:34:10.552Z,56.77
2023-01-27T02:35:10.540Z,54.40
2023-01-27T02:36:10.534Z,53.28
2023-01-27T02:37:10.523Z,52.77
2023-01-27T02:38:10.506Z,51.21
2023-01-27T02:39:10.500Z,49.46
2023-01-27T02:40:10.487Z,49.56
2023-01-27T02:41:10.592Z,48.22
2023-01-27T02:42:10.483Z,48.22
2023-01-27T02:43:10.453Z,47.70
2023-01-27T02:44:10.448Z,45.42
2023-01-27T02:45:10.556Z,43.66
2023-01-27T02:46:10.464Z,45.21
2023-01-27T02:47:10.415Z,45.32
2023-01-27T02:48:10.400Z,43.56
2023-01-27T02:49:10.419Z,44.08
2023-01-27T02:50:10.372Z,43.35
2023-01-27T02:51:10.366Z,42.94
2023-01-27T02:52:10.353Z,38.70
2023-01-27T02:53:10.343Z,37.97
2023-01-27T02:54:10.329Z,37.15
2023-01-27T02:55:10.705Z,36.94
2023-01-27T02:56:10.308Z,34.14
2023-01-27T02:57:10.296Z,32.18
2023-01-27T02:58:10.289Z,32.28
2023-01-27T02:59:10.279Z,29.29
2023-01-27T03:00:10.264Z,27.53
2023-01-27T03:01:10.295Z,25.88
2023-01-27T03:02:10.280Z,25.46
2023-01-27T03:03:10.232Z,24.74
2023-01-27T03:04:10.239Z,23.71
2023-01-27T03:05:10.254Z,22.56
2023-01-27T03:06:10.203Z,21.53
2023-01-27T03:07:10.191Z,21.22
2023-01-27T03:08:10.176Z,19.56
2023-01-27T03:09:10.167Z,18.01
2023-01-27T03:10:10.154Z,18.53
2023-01-27T03:11:10.143Z,19.46
2023-01-27T03:12:10.136Z,17.08
2023-01-27T03:13:10.121Z,15.94
2023-01-27T03:14:10.112Z,16.97
2023-01-27T03:15:10.174Z,15.73
2023-01-27T03:16:11.555Z,13.97
2023-01-27T03:17:10.083Z,12.63
2023-01-27T03:18:10.063Z,11.18
2023-01-27T03:19:10.073Z,9.94
2023-01-27T03:20:10.046Z,8.48
2023-01-27T03:21:10.063Z,7.45
2023-01-27T03:22:10.027Z,6.73
2023-01-27T03:23:10.010Z,7.45
2023-01-27T03:24:10.060Z,5.80
2023-01-27T03:25:09.997Z,4.35
2023-01-27T03:26:09.986Z,2.90
2023-01-27T03:27:09.967Z,2.90
2023-01-27T03:28:09.957Z,1.86
2023-01-27T03:29:09.948Z,0.31
2023-01-27T03:30:09.931Z,0.00
2023-01-27T03:31:10.052Z,0.00
2023-01-27T03:32:09.911Z,0.00
2023-01-27T03:33:09.903Z,0.00
2023-01-27T03:34:09.889Z,0.00
2023-01-27T03:35:09.953Z,0.00
2023-01-27T03:36:09.870Z,0.00
2023-01-27T03:37:09.882Z,0.00
2023-01-27T03:38:09.848Z,0.00
2023-01-27T03:39:09.833Z,0.00
2023-01-27T03:40:09.861Z,0.00
2023-01-27T03:41:09.811Z,0.00
2023-01-27T03:42:09.815Z,0.00
2023-01-27T03:43:09.791Z,0.00
2023-01-27T03:44:09.785Z,0.00
2023-01-27T03:45:09.993Z,0.00
2023-01-27T03:46:09.861Z,0.00
2023-01-27T03:47:09.752Z,0.00
2023-01-27T03:48:09.737Z,0.00
2023-01-27T03:49:09.724Z,0.00
2023-01-27T03:50:09.711Z,0.00
2023-01-27T03:51:09.710Z,0.00
2023-01-27T03:52:09.692Z,0.00
2023-01-27T03:53:09.704Z,0.00
2023-01-27T03:54:09.672Z,0.00
2023-01-27T03:55:09.663Z,0.00
2023-01-27T03:56:09.647Z,0.00
2023-01-27T03:57:09.637Z,0.00
2023-01-27T03:58:09.623Z,0.00
2023-01-27T03:59:09.616Z,0.00
2023-01-27T04:00:09.605Z,0.00
2023-01-27T04:01:09.591Z,0.00
2023-01-27T04:02:09.591Z,0.00
2023-01-27T04:03:09.571Z,0.00
2023-01-27T04:04:09.558Z,0.00
2023-01-27T04:05:09.549Z,0.00
2023-01-27T04:06:09.541Z,0.00
2023-01-27T04:07:09.538Z,0.00
2023-01-27T04:08:09.531Z,0.00
2023-01-27T04:09:09.529Z,0.00
2023-01-27T04:10:09.516Z,0.00
2023-01-27T04:11:09.498Z,0.00
2023-01-27T04:12:09.470Z,0.00
2023-01-27T04:13:09.460Z,0.00
2023-01-27T04:14:09.449Z,0.00
2023-01-27T04:15:09.445Z,0.00
2023-01-27T04:16:09.444Z,0.00
2023-01-27T04:17:09.417Z,0.00
2023-01-27T04:18:09.402Z,0.00
2023-01-27T04:19:09.399Z,0.00
2023-01-27T04:20:09.383Z,0.00
2023-01-27T04:21:09.372Z,0.00
2023-01-27T04:22:09.362Z,0.00
2023-01-27T04:23:09.353Z,0.00
2023-01-27T04:24:09.416Z,0.00
2023-01-27T04:25:11.040Z,0.00
2023-01-27T04:26:09.329Z,0.00
2023-01-27T04:27:09.318Z,0.00
2023-01-27T04:28:09.296Z,0.00
2023-01-27T04:29:09.289Z,0.00
2023-01-27T04:30:09.273Z,0.00
2023-01-27T04:31:09.383Z,0.00
2023-01-27T04:32:09.260Z,0.00
2023-01-27T04:33:09.242Z,0.00
2023-01-27T04:34:09.232Z,0.00
2023-01-27T04:35:09.225Z,0.00
2023-01-27T04:36:09.207Z,0.00
2023-01-27T04:37:09.201Z,0.00
2023-01-27T04:38:09.188Z,0.00
2023-01-27T04:39:09.185Z,0.00
2023-01-27T04:40:09.167Z,0.00
2023-01-27T04:41:09.184Z,0.00
2023-01-27T04:42:09.164Z,0.00
2023-01-27T04:43:09.137Z,0.00
2023-01-27T04:44:09.122Z,0.00
2023-01-27T04:45:09.114Z,0.00
2023-01-27T04:46:09.122Z,0.00
2023-01-27T04:47:09.097Z,0.00
2023-01-27T04:48:09.080Z,0.00
2023-01-27T04:49:09.079Z,0.00
2023-01-27T04:50:09.058Z,0.00
2023-01-27T04:51:09.045Z,0.00
2023-01-27T04:52:09.037Z,0.00
2023-01-27T04:53:09.025Z,0.00
2023-01-27T04:54:09.022Z,0.00
2023-01-27T04:55:09.003Z,0.00
2023-01-27T04:56:08.991Z,0.00
2023-01-27T04:57:09.007Z,0.00
2023-01-27T04:58:08.973Z,0.00
2023-01-27T04:59:08.959Z,0.00
2023-01-27T05:01:08.939Z,0.00
2023-01-27T05:02:08.995Z,0.00
2023-01-27T05:03:09.003Z,0.00
2023-01-27T05:04:08.905Z,0.00
2023-01-27T05:05:08.895Z,0.00
2023-01-27T05:06:08.883Z,0.00
2023-01-27T05:07:08.876Z,0.00
2023-01-27T05:08:08.865Z,0.00
2023-01-27T05:09:08.857Z,0.00
2023-01-27T05:10:08.839Z,0.00
2023-01-27T05:11:08.840Z,0.00
2023-01-27T05:12:08.817Z,0.00
2023-01-27T05:13:08.840Z,0.00
2023-01-27T05:14:08.796Z,0.00
2023-01-27T05:15:08.786Z,0.00
2023-01-27T05:16:08.865Z,0.00
2023-01-27T05:17:08.873Z,0.00
2023-01-27T05:18:08.754Z,0.00
2023-01-27T05:19:08.742Z,0.00
2023-01-27T05:20:08.733Z,0.00
2023-01-27T05:21:08.734Z,0.00
2023-01-27T05:22:08.715Z,0.31
2023-01-27T05:23:08.700Z,0.00
2023-01-27T05:24:08.722Z,1.14
2023-01-27T05:25:08.678Z,0.31
2023-01-27T05:26:08.717Z,0.00
2023-01-27T05:27:08.655Z,0.51
2023-01-27T05:28:08.644Z,2.17
2023-01-27T05:29:08.657Z,0.00
2023-01-27T05:30:08.620Z,0.10
2023-01-27T05:31:08.755Z,0.00
2023-01-27T05:32:08.601Z,0.00
2023-01-27T05:33:08.589Z,0.00
2023-01-27T05:34:08.578Z,0.00
2023-01-27T05:35:08.572Z,0.00
2023-01-27T05:36:08.580Z,0.00
2023-01-27T05:37:08.549Z,0.00
2023-01-27T05:38:08.533Z,0.00
2023-01-27T05:39:09.077Z,0.00
2023-01-27T05:40:08.515Z,0.00
2023-01-27T05:41:08.511Z,0.00
2023-01-27T05:42:08.492Z,0.00
2023-01-27T05:43:08.480Z,0.00
2023-01-27T05:44:08.470Z,0.51
2023-01-27T05:45:08.484Z,1.55
2023-01-27T05:46:08.509Z,1.86
2023-01-27T05:47:08.442Z,0.72
2023-01-27T05:48:08.426Z,0.82
2023-01-27T05:49:08.421Z,0.51
2023-01-27T05:50:08.407Z,0.00
2023-01-27T05:51:08.400Z,0.00
2023-01-27T05:52:08.382Z,0.00
2023-01-27T05:53:08.374Z,0.00
2023-01-27T05:54:08.365Z,0.00
2023-01-27T05:55:08.350Z,1.45
2023-01-27T05:56:08.339Z,3.73
2023-01-27T05:57:08.335Z,9.43
2023-01-27T05:58:08.317Z,11.60
2023-01-27T05:59:08.331Z,10.68
2023-01-27T06:00:08.297Z,10.47
2023-01-27T06:01:08.307Z,9.74
2023-01-27T06:02:08.392Z,10.99
2023-01-27T06:03:08.259Z,11.51
2023-01-27T06:04:08.260Z,13.99
2023-01-27T06:05:08.237Z,13.26
2023-01-27T06:06:08.246Z,13.16
2023-01-27T06:07:08.220Z,12.43
2023-01-27T06:08:08.208Z,13.16
2023-01-27T06:09:08.197Z,13.46
2023-01-27T06:10:08.187Z,12.54
2023-01-27T06:11:08.174Z,10.98
2023-01-27T06:12:08.172Z,10.67
2023-01-27T06:13:08.156Z,10.77
2023-01-27T06:14:08.151Z,9.22
2023-01-27T06:15:08.143Z,8.60
2023-01-27T06:16:08.197Z,10.47
2023-01-27T06:17:08.133Z,10.57
2023-01-27T06:18:08.098Z,11.29
2023-01-27T06:19:08.086Z,12.74
2023-01-27T06:20:08.075Z,13.26
2023-01-27T06:21:08.080Z,13.26
2023-01-27T06:22:08.056Z,12.02
2023-01-27T06:23:08.045Z,13.36
2023-01-27T06:24:08.111Z,14.19
2023-01-27T06:25:08.024Z,14.71
2023-01-27T06:26:08.035Z,13.98
2023-01-27T06:27:07.996Z,16.16
2023-01-27T06:28:09.282Z,14.40
2023-01-27T06:29:07.975Z,15.64
2023-01-27T06:30:07.966Z,15.54
2023-01-27T06:31:08.028Z,15.64
2023-01-27T06:32:08.041Z,14.92
2023-01-27T06:33:07.956Z,15.02
2023-01-27T06:34:07.925Z,15.02
2023-01-27T06:35:07.914Z,15.23
2023-01-27T06:36:07.903Z,15.23
2023-01-27T06:37:07.895Z,17.20
2023-01-27T06:38:07.880Z,16.58
2023-01-27T06:39:07.863Z,16.06
2023-01-27T06:40:07.854Z,16.06
2023-01-27T06:41:07.861Z,18.33
2023-01-27T06:42:07.836Z,18.54
2023-01-27T06:43:07.830Z,18.13
2023-01-27T06:44:07.846Z,17.71
2023-01-27T06:45:07.818Z,16.16
2023-01-27T06:46:07.840Z,16.37
2023-01-27T06:47:07.781Z,18.65
2023-01-27T06:48:07.770Z,20.93
2023-01-27T06:49:07.813Z,21.03
2023-01-27T06:50:07.748Z,25.07
2023-01-27T06:51:07.757Z,29.01
2023-01-27T06:52:07.762Z,30.67
2023-01-27T06:53:07.737Z,32.53
2023-01-27T06:54:07.705Z,33.05
2023-01-27T06:55:07.692Z,31.60
2023-01-27T06:56:07.681Z,34.50
2023-01-27T06:57:07.674Z,31.91
2023-01-27T06:58:07.676Z,29.32
2023-01-27T06:59:07.829Z,29.11
2023-01-27T07:00:07.635Z,29.22
2023-01-27T07:01:07.736Z,30.67
2023-01-27T07:02:07.629Z,30.98
2023-01-27T07:03:07.600Z,30.57
2023-01-27T07:04:07.606Z,31.81
2023-01-27T07:05:07.625Z,32.64
2023-01-27T07:06:07.580Z,36.36
2023-01-27T07:07:07.561Z,34.71
2023-01-27T07:08:07.555Z,32.84
2023-01-27T07:09:07.538Z,30.46
2023-01-27T07:10:07.530Z,30.57
2023-01-27T07:11:07.516Z,26.93
2023-01-27T07:12:07.507Z,26.62
2023-01-27T07:13:07.509Z,30.26
2023-01-27T07:14:09.652Z,29.43
2023-01-27T07:15:07.544Z,30.36
2023-01-27T07:16:07.641Z,29.74
2023-01-27T07:17:07.449Z,27.35
2023-01-27T07:18:07.451Z,26.11
2023-01-27T07:19:07.428Z,24.04
2023-01-27T07:20:07.419Z,21.34
2023-01-27T07:21:07.459Z,24.36
2023-01-27T07:22:07.403Z,22.80
2023-01-27T07:23:07.400Z,20.73
2023-01-27T07:24:07.462Z,20.83
2023-01-27T07:25:07.369Z,21.04
2023-01-27T07:26:19.164Z,22.49
2023-01-27T07:27:08.367Z,20.52
2023-01-27T07:28:07.336Z,18.55
2023-01-27T07:29:07.335Z,15.55
2023-01-27T07:30:07.313Z,15.34
2023-01-27T07:31:07.387Z,15.55
2023-01-27T07:32:07.392Z,16.89
2023-01-27T07:33:07.292Z,15.44
2023-01-27T07:34:07.264Z,17.00
2023-01-27T07:35:07.253Z,18.55
2023-01-27T07:36:07.247Z,17.83
2023-01-27T07:37:07.259Z,19.49
2023-01-27T07:38:07.253Z,20.21
2023-01-27T07:39:07.215Z,20.83
2023-01-27T07:40:07.255Z,18.66
2023-01-27T07:41:07.304Z,20.62
2023-01-27T07:42:07.186Z,18.97
2023-01-27T07:43:07.170Z,25.40
2023-01-27T07:44:07.165Z,28.92
2023-01-27T07:45:07.150Z,30.27
2023-01-27T07:46:07.183Z,28.59
2023-01-27T07:47:07.123Z,27.45
2023-01-27T07:48:07.165Z,28.08
2023-01-27T07:49:07.108Z,33.88
2023-01-27T07:50:07.102Z,36.26
2023-01-27T07:51:07.081Z,37.19
2023-01-27T07:52:07.073Z,39.27
2023-01-27T07:53:07.108Z,37.71
2023-01-27T07:54:07.067Z,37.09
2023-01-27T07:55:07.043Z,40.51
2023-01-27T07:56:07.027Z,39.06
2023-01-27T07:57:07.014Z,40.92
2023-01-27T07:58:07.005Z,39.89
2023-01-27T07:59:07.006Z,39.06
2023-01-27T08:00:06.979Z,40.72
2023-01-27T08:01:07.034Z,40.20
2023-01-27T08:02:06.964Z,43.41
2023-01-27T08:03:06.979Z,41.86
2023-01-27T08:04:06.957Z,41.96
2023-01-27T08:05:06.925Z,39.27
2023-01-27T08:06:06.915Z,45.38
2023-01-27T08:07:06.902Z,43.41
2023-01-27T08:08:06.919Z,42.79
2023-01-27T08:09:06.906Z,43.93
2023-01-27T08:10:06.874Z,46.21
2023-01-27T08:11:06.866Z,44.55
2023-01-27T08:12:06.856Z,46.73
2023-01-27T08:13:06.869Z,45.28
2023-01-27T08:14:06.829Z,52.43
2023-01-27T08:15:06.824Z,48.80
2023-01-27T08:16:06.848Z,48.28
2023-01-27T08:17:06.797Z,48.18
2023-01-27T08:18:06.793Z,53.36
2023-01-27T08:19:06.773Z,54.60
2023-01-27T08:20:06.775Z,55.95
2023-01-27T08:21:06.751Z,55.74
2023-01-27T08:22:06.747Z,59.47
2023-01-27T08:23:06.728Z,61.24
2023-01-27T08:24:06.736Z,59.75
2023-01-27T08:25:06.740Z,57.58
2023-01-27T08:26:06.705Z,59.99
2023-01-27T08:27:08.304Z,60.17
2023-01-27T08:28:06.676Z,57.58
2023-01-27T08:29:06.670Z,60.79
2023-01-27T08:30:06.651Z,62.14
2023-01-27T08:31:06.641Z,61.62
2023-01-27T08:32:06.835Z,60.27
2023-01-27T08:33:06.624Z,62.14
2023-01-27T08:34:06.613Z,61.00
2023-01-27T08:35:06.597Z,63.79
2023-01-27T08:36:06.593Z,61.72
2023-01-27T08:37:06.573Z,59.66
2023-01-27T08:38:06.566Z,60.38
2023-01-27T08:39:06.566Z,59.66
2023-01-27T08:40:06.558Z,62.55
2023-01-27T08:41:06.560Z,62.76
2023-01-27T08:42:06.530Z,60.48
2023-01-27T08:43:06.517Z,62.76
2023-01-27T08:44:06.500Z,61.41
2023-01-27T08:45:06.498Z,62.55
2023-01-27T08:46:06.663Z,59.75
2023-01-27T08:47:06.462Z,58.59
2023-01-27T08:48:06.452Z,62.94
2023-01-27T08:49:06.440Z,63.04
2023-01-27T08:50:06.436Z,62.01
2023-01-27T08:51:06.425Z,60.97
2023-01-27T08:52:06.407Z,63.15
2023-01-27T08:53:06.395Z,62.21
2023-01-27T08:54:06.395Z,62.94
2023-01-27T08:55:06.375Z,59.94
2023-01-27T08:56:06.378Z,63.04
2023-01-27T08:57:06.375Z,61.59
2023-01-27T08:58:06.348Z,66.15
2023-01-27T08:59:06.344Z,68.01
2023-01-27T09:00:06.323Z,63.84
2023-01-27T09:01:06.403Z,67.57
2023-01-27T09:02:06.298Z,68.60
2023-01-27T09:03:06.287Z,71.39
2023-01-27T09:04:06.278Z,69.01
2023-01-27T09:05:06.263Z,66.12
2023-01-27T09:06:06.281Z,66.32
2023-01-27T09:07:06.244Z,68.40
2023-01-27T09:08:06.234Z,68.60
2023-01-27T09:09:06.235Z,68.60
2023-01-27T09:10:14.463Z,66.94
2023-01-27T09:11:07.278Z,66.32
2023-01-27T09:12:06.287Z,67.05
2023-01-27T09:13:06.332Z,66.42
2023-01-27T09:14:06.286Z,70.57
2023-01-27T09:15:06.270Z,69.64
2023-01-27T09:16:06.375Z,68.19
2023-01-27T09:17:06.136Z,65.81
2023-01-27T09:18:06.835Z,69.01
2023-01-27T09:19:06.120Z,67.25
2023-01-27T09:20:06.106Z,69.01
2023-01-27T09:21:06.124Z,68.70
2023-01-27T09:22:06.079Z,67.67
2023-01-27T09:23:06.069Z,66.94
2023-01-27T09:24:06.116Z,66.91
2023-01-27T09:25:06.047Z,68.88
2023-01-27T09:26:06.051Z,66.81
2023-01-27T09:27:06.024Z,68.15
2023-01-27T09:28:06.015Z,65.67
2023-01-27T09:29:06.028Z,69.60
2023-01-27T09:30:06.001Z,73.84
2023-01-27T09:31:06.148Z,72.19
2023-01-27T09:32:06.002Z,70.32
2023-01-27T09:33:05.964Z,69.92
2023-01-27T09:34:05.951Z,72.60
2023-01-27T09:35:05.938Z,71.47
2023-01-27T09:36:05.929Z,73.94
2023-01-27T09:37:05.914Z,69.40
2023-01-27T09:38:05.903Z,74.36
2023-01-27T09:39:06.202Z,73.84
2023-01-27T09:40:05.883Z,73.08
2023-01-27T09:41:05.879Z,71.53
2023-01-27T09:42:05.860Z,70.50
2023-01-27T09:43:05.846Z,69.88
2023-01-27T09:44:05.836Z,72.88
2023-01-27T09:45:05.847Z,72.36
2023-01-27T09:46:05.861Z,74.43
2023-01-27T09:47:05.812Z,74.53
2023-01-27T09:48:05.813Z,73.08
2023-01-27T09:49:05.781Z,71.64
2023-01-27T09:50:05.781Z,70.61
2023-01-27T09:51:05.765Z,70.98
2023-01-27T09:52:05.747Z,72.64
2023-01-27T09:53:05.748Z,68.19
2023-01-27T09:54:05.725Z,74.81
2023-01-27T09:55:05.715Z,74.22
2023-01-27T09:56:05.703Z,73.81
2023-01-27T09:57:05.692Z,71.84
2023-01-27T09:58:05.683Z,74.33
2023-01-27T09:59:05.668Z,75.67
2023-01-27T10:00:05.662Z,71.02
2023-01-27T10:01:05.675Z,72.57
2023-01-27T10:02:05.649Z,73.91
2023-01-27T10:03:05.630Z,71.95
2023-01-27T10:04:05.614Z,69.26
2023-01-27T10:05:05.609Z,67.71
2023-01-27T10:06:05.596Z,66.67
2023-01-27T10:07:05.578Z,66.96
2023-01-27T10:08:05.572Z,68.19
2023-01-27T10:09:05.565Z,68.33
2023-01-27T10:10:05.572Z,70.92
2023-01-27T10:11:05.592Z,70.29
2023-01-27T10:12:05.642Z,69.88
2023-01-27T10:13:05.582Z,80.77
2023-01-27T10:14:05.535Z,80.15
2023-01-27T10:15:05.557Z,77.56
2023-01-27T10:16:05.657Z,77.84
2023-01-27T10:17:05.562Z,76.39
2023-01-27T10:18:05.473Z,77.74
2023-01-27T10:19:05.449Z,75.26
2023-01-27T10:20:05.442Z,74.63
2023-01-27T10:21:05.438Z,75.57
2023-01-27T10:22:05.470Z,76.29
2023-01-27T10:23:05.405Z,76.60
2023-01-27T10:24:05.471Z,74.74
2023-01-27T10:25:05.396Z,76.56
2023-01-27T10:26:05.371Z,75.95
2023-01-27T10:27:07.739Z,75.22
2023-01-27T10:28:05.347Z,77.29
2023-01-27T10:29:05.340Z,77.70
2023-01-27T10:30:05.427Z,75.70
2023-01-27T10:31:05.466Z,76.56
2023-01-27T10:32:05.356Z,75.70
2023-01-27T10:33:05.318Z,78.84
2023-01-27T10:34:05.283Z,76.36
2023-01-27T10:35:05.272Z,76.77
2023-01-27T10:36:05.264Z,76.46
2023-01-27T10:37:05.250Z,80.11
2023-01-27T10:38:05.245Z,75.88
2023-01-27T10:39:05.230Z,74.33
2023-01-27T10:40:05.296Z,72.78
2023-01-27T10:41:05.206Z,70.71
2023-01-27T10:42:05.307Z,69.88
2023-01-27T10:43:05.183Z,67.91
2023-01-27T10:44:05.178Z,67.50
2023-01-27T10:45:05.176Z,66.81
2023-01-27T10:46:05.207Z,63.71
2023-01-27T10:47:05.140Z,66.29
2023-01-27T10:48:05.136Z,62.46
2023-01-27T10:49:05.157Z,57.50
2023-01-27T10:50:05.123Z,60.81
2023-01-27T10:51:05.103Z,58.46
2023-01-27T10:52:05.227Z,53.26
2023-01-27T10:53:05.079Z,53.47
2023-01-27T10:54:05.066Z,55.02
2023-01-27T10:55:05.063Z,48.38
2023-01-27T10:56:05.058Z,54.99
2023-01-27T10:57:05.032Z,55.20
2023-01-27T10:58:05.019Z,55.51
2023-01-27T10:59:05.007Z,50.86
2023-01-27T11:00:37.625Z,52.72
2023-01-27T11:01:20.459Z,57.06
2023-01-27T11:02:05.286Z,51.58
2023-01-27T11:03:04.964Z,52.62
2023-01-27T11:04:05.009Z,52.62
2023-01-27T11:05:05.025Z,53.03
2023-01-27T11:06:04.949Z,50.86
2023-01-27T11:07:04.922Z,60.99
2023-01-27T11:08:04.908Z,51.71
2023-01-27T11:09:04.903Z,53.36
2023-01-27T11:10:04.940Z,57.40
2023-01-27T11:11:04.885Z,53.36
2023-01-27T11:12:04.868Z,51.29
2023-01-27T11:13:04.854Z,53.05
2023-01-27T11:14:04.845Z,55.43
2023-01-27T11:15:04.834Z,52.02
2023-01-27T11:16:04.869Z,56.77
2023-01-27T11:17:04.843Z,52.54
2023-01-27T11:18:04.807Z,51.50
2023-01-27T11:19:04.794Z,52.23
2023-01-27T11:20:04.775Z,57.71
2023-01-27T11:21:04.803Z,56.05
2023-01-27T11:22:08.636Z,57.40
2023-01-27T11:23:04.748Z,63.09
2023-01-27T11:24:04.775Z,59.34
2023-01-27T11:25:04.724Z,61.92
2023-01-27T11:26:04.712Z,61.40
2023-01-27T11:27:04.702Z,59.34
2023-01-27T11:28:04.692Z,62.95
2023-01-27T11:29:04.677Z,64.92
2023-01-27T11:30:04.737Z,61.71
2023-01-27T11:31:04.683Z,57.99
2023-01-27T11:32:04.709Z,63.75
2023-01-27T11:33:04.644Z,67.68
2023-01-27T11:34:04.630Z,67.47
2023-01-27T11:35:04.620Z,70.43
2023-01-27T11:36:04.598Z,74.15
2023-01-27T11:37:04.614Z,76.32
2023-01-27T11:38:15.043Z,77.46
2023-01-27T11:39:04.572Z,76.32
2023-01-27T11:40:04.576Z,75.09
2023-01-27T11:41:04.546Z,78.49
2023-01-27T11:42:04.540Z,76.22
2023-01-27T11:43:04.537Z,79.94
2023-01-27T11:44:04.522Z,81.49
2023-01-27T11:45:04.500Z,77.98
2023-01-27T11:46:04.571Z,81.28
2023-01-27T11:47:04.491Z,79.42
2023-01-27T11:48:04.472Z,75.91
2023-01-27T11:49:04.544Z,81.66
2023-01-27T11:50:04.488Z,79.28
2023-01-27T11:51:04.443Z,82.59
2023-01-27T11:52:04.422Z,88.98
2023-01-27T11:53:04.545Z,88.16
2023-01-27T11:54:04.413Z,87.68
2023-01-27T11:55:04.399Z,88.51
2023-01-27T11:56:04.379Z,86.96
2023-01-27T11:57:04.371Z,87.58
2023-01-27T11:58:04.357Z,88.71
2023-01-27T11:59:04.361Z,89.28
2023-01-27T12:00:04.334Z,87.21
2023-01-27T12:01:04.330Z,85.86
2023-01-27T12:02:04.317Z,82.66
2023-01-27T12:03:04.308Z,82.56
2023-01-27T12:04:04.321Z,80.70
2023-01-27T12:05:04.282Z,81.01
2023-01-27T12:06:04.271Z,82.76
2023-01-27T12:07:04.266Z,79.77
2023-01-27T12:08:04.255Z,80.60
2023-01-27T12:09:04.263Z,82.15
2023-01-27T12:10:04.253Z,82.04
2023-01-27T12:11:04.215Z,81.32
2023-01-27T12:12:04.202Z,73.67
2023-01-27T12:13:04.193Z,82.76
2023-01-27T12:14:04.185Z,78.94
2023-01-27T12:15:04.169Z,80.80
2023-01-27T12:16:04.286Z,81.84
2023-01-27T12:17:04.160Z,84.52
2023-01-27T12:18:04.138Z,85.55
2023-01-27T12:19:04.133Z,88.76
2023-01-27T12:20:04.120Z,89.38
2023-01-27T12:21:04.116Z,91.24
2023-01-27T12:22:04.092Z,86.83
2023-01-27T12:23:04.093Z,83.22
2023-01-27T12:24:04.119Z,84.66
2023-01-27T12:25:04.093Z,82.97
2023-01-27T12:26:04.209Z,85.14
2023-01-27T12:27:04.048Z,85.66
2023-01-27T12:28:04.026Z,86.42
2023-01-27T12:29:04.027Z,85.49
2023-01-27T12:30:04.013Z,83.32
2023-01-27T12:31:04.072Z,81.15
2023-01-27T12:32:04.056Z,80.01
2023-01-27T12:33:03.975Z,81.67
2023-01-27T12:34:03.988Z,81.67
2023-01-27T12:35:03.977Z,83.01
2023-01-27T12:36:03.938Z,83.11
2023-01-27T12:37:03.928Z,77.94
2023-01-27T12:38:03.918Z,82.18
2023-01-27T12:39:03.915Z,83.01
2023-01-27T12:40:03.910Z,80.43
2023-01-27T12:41:03.920Z,82.60
2023-01-27T12:42:03.870Z,87.25
2023-01-27T12:43:03.869Z,83.36
2023-01-27T12:44:03.853Z,82.32
2023-01-27T12:45:03.839Z,81.70
2023-01-27T12:46:03.831Z,83.22
2023-01-27T12:47:03.820Z,85.39
2023-01-27T12:48:03.828Z,84.25
2023-01-27T12:49:03.794Z,87.25
2023-01-27T12:50:03.785Z,90.70
2023-01-27T12:51:04.165Z,86.36
2023-01-27T12:52:03.782Z,88.43
2023-01-27T12:53:03.759Z,89.04
2023-01-27T12:54:03.739Z,88.43
2023-01-27T12:55:03.728Z,86.88
2023-01-27T12:56:03.725Z,87.46
2023-01-27T12:57:03.741Z,83.11
2023-01-27T12:58:03.706Z,86.63